sensor_id;sensor_type;location;lat;lon;timestamp;pressure;altitude;pressure_sealevel;temperature;humidity
61786;BME280;47692;53.714;11.372;2024-01-16T00:02:09;99603.38;;;-4.83;95.80
61786;BME280;47692;53.714;11.372;2024-01-16T00:04:38;99615.03;;;-4.93;96.00
61786;BME280;47692;53.714;11.372;2024-01-16T00:07:05;99617.25;;;-5.08;95.24
61786;BME280;47692;53.714;11.372;2024-01-16T00:09:33;99614.47;;;-5.17;95.13
61786;BME280;47692;53.714;11.372;2024-01-16T00:11:59;99619.44;;;-5.24;95.49
61786;BME280;47692;53.714;11.372;2024-01-16T00:14:24;99621.03;;;-5.27;95.63
61786;BME280;47692;53.714;11.372;2024-01-16T00:16:49;99627.72;;;-5.31;96.24
61786;BME280;47692;53.714;11.372;2024-01-16T00:19:15;99629.47;;;-5.30;96.55
61786;BME280;47692;53.714;11.372;2024-01-16T00:21:44;99637.84;;;-5.34;96.27
61786;BME280;47692;53.714;11.372;2024-01-16T00:24:13;99641.31;;;-5.32;96.14
61786;BME280;47692;53.714;11.372;2024-01-16T00:26:39;99645.50;;;-5.32;96.76
61786;BME280;47692;53.714;11.372;2024-01-16T00:29:04;99642.84;;;-5.37;96.86
61786;BME280;47692;53.714;11.372;2024-01-16T00:31:30;99656.63;;;-5.29;97.65
61786;BME280;47692;53.714;11.372;2024-01-16T00:33:55;99655.69;;;-5.32;97.83
61786;BME280;47692;53.714;11.372;2024-01-16T00:36:20;99657.38;;;-5.33;97.70
61786;BME280;47692;53.714;11.372;2024-01-16T00:38:46;99666.81;;;-5.29;97.93
61786;BME280;47692;53.714;11.372;2024-01-16T00:41:12;99682.34;;;-5.18;98.35
61786;BME280;47692;53.714;11.372;2024-01-16T00:43:39;99690.94;;;-5.14;98.63
61786;BME280;47692;53.714;11.372;2024-01-16T00:46:04;99679.81;;;-5.18;99.04
61786;BME280;47692;53.714;11.372;2024-01-16T00:48:30;99695.19;;;-5.13;99.47
61786;BME280;47692;53.714;11.372;2024-01-16T00:50:55;99690.00;;;-5.16;100.00
61786;BME280;47692;53.714;11.372;2024-01-16T00:53:21;99708.81;;;-5.10;100.00
61786;BME280;47692;53.714;11.372;2024-01-16T00:55:46;99727.72;;;-5.01;100.00
61786;BME280;47692;53.714;11.372;2024-01-16T00:58:11;99725.03;;;-5.06;100.00
61786;BME280;47692;53.714;11.372;2024-01-16T01:00:37;99730.13;;;-5.06;100.00
61786;BME280;47692;53.714;11.372;2024-01-16T01:03:03;99742.34;;;-4.93;100.00
61786;BME280;47692;53.714;11.372;2024-01-16T01:05:29;99746.09;;;-4.78;100.00
61786;BME280;47692;53.714;11.372;2024-01-16T01:07:55;99753.88;;;-4.72;100.00
61786;BME280;47692;53.714;11.372;2024-01-16T01:10:20;99747.09;;;-4.72;100.00
61786;BME280;47692;53.714;11.372;2024-01-16T01:12:46;99762.53;;;-4.64;100.00
61786;BME280;47692;53.714;11.372;2024-01-16T01:15:11;99769.47;;;-4.58;100.00
61786;BME280;47692;53.714;11.372;2024-01-16T01:17:37;99761.97;;;-4.52;100.00
61786;BME280;47692;53.714;11.372;2024-01-16T01:20:02;99778.19;;;-4.50;100.00
61786;BME280;47692;53.714;11.372;2024-01-16T01:22:28;99778.34;;;-4.42;100.00
61786;BME280;47692;53.714;11.372;2024-01-16T01:24:53;99777.53;;;-4.41;100.00
61786;BME280;47692;53.714;11.372;2024-01-16T01:27:19;99776.72;;;-4.39;100.00
61786;BME280;47692;53.714;11.372;2024-01-16T01:29:45;99779.44;;;-4.31;100.00
61786;BME280;47692;53.714;11.372;2024-01-16T01:32:10;99782.94;;;-4.26;100.00
61786;BME280;47692;53.714;11.372;2024-01-16T01:34:35;99788.06;;;-4.26;100.00
61786;BME280;47692;53.714;11.372;2024-01-16T01:37:01;99792.34;;;-4.23;100.00
61786;BME280;47692;53.714;11.372;2024-01-16T01:39:26;99797.63;;;-4.15;100.00
61786;BME280;47692;53.714;11.372;2024-01-16T01:41:52;99802.00;;;-4.10;100.00
61786;BME280;47692;53.714;11.372;2024-01-16T01:44:17;99805.34;;;-4.12;100.00
61786;BME280;47692;53.714;11.372;2024-01-16T01:46:43;99808.75;;;-4.12;100.00
61786;BME280;47692;53.714;11.372;2024-01-16T01:49:11;99817.31;;;-4.08;100.00
61786;BME280;47692;53.714;11.372;2024-01-16T01:51:37;99812.22;;;-4.08;100.00
61786;BME280;47692;53.714;11.372;2024-01-16T01:54:02;99820.69;;;-4.09;100.00
61786;BME280;47692;53.714;11.372;2024-01-16T01:56:28;99821.59;;;-4.07;100.00
61786;BME280;47692;53.714;11.372;2024-01-16T01:58:56;99823.19;;;-4.12;100.00
61786;BME280;47692;53.714;11.372;2024-01-16T02:01:23;99825.75;;;-4.12;100.00
61786;BME280;47692;53.714;11.372;2024-01-16T02:03:49;99834.31;;;-4.10;100.00
61786;BME280;47692;53.714;11.372;2024-01-16T02:06:15;99833.38;;;-4.14;100.00
61786;BME280;47692;53.714;11.372;2024-01-16T02:08:42;99841.22;;;-4.03;100.00
61786;BME280;47692;53.714;11.372;2024-01-16T02:11:07;99847.22;;;-4.02;100.00
61786;BME280;47692;53.714;11.372;2024-01-16T02:13:33;99843.03;;;-3.99;100.00
61786;BME280;47692;53.714;11.372;2024-01-16T02:15:58;99850.69;;;-3.99;100.00
61786;BME280;47692;53.714;11.372;2024-01-16T02:18:24;99853.16;;;-4.02;100.00
61786;BME280;47692;53.714;11.372;2024-01-16T02:20:49;99848.06;;;-4.02;100.00
61786;BME280;47692;53.714;11.372;2024-01-16T02:23:21;99849.53;;;-4.12;100.00
61786;BME280;47692;53.714;11.372;2024-01-16T02:25:50;99847.72;;;-4.17;100.00
61786;BME280;47692;53.714;11.372;2024-01-16T02:28:15;99851.09;;;-4.18;100.00
61786;BME280;47692;53.714;11.372;2024-01-16T02:30:42;99840.75;;;-4.25;100.00
61786;BME280;47692;53.714;11.372;2024-01-16T02:33:07;99834.81;;;-4.25;100.00
61786;BME280;47692;53.714;11.372;2024-01-16T02:35:33;99841.56;;;-4.27;100.00
61786;BME280;47692;53.714;11.372;2024-01-16T02:37:58;99842.53;;;-4.20;100.00
61786;BME280;47692;53.714;11.372;2024-01-16T02:40:25;99840.81;;;-4.22;100.00
61786;BME280;47692;53.714;11.372;2024-01-16T02:42:51;99846.16;;;-4.12;100.00
61786;BME280;47692;53.714;11.372;2024-01-16T02:45:16;99837.59;;;-4.14;100.00
61786;BME280;47692;53.714;11.372;2024-01-16T02:47:42;99845.22;;;-4.14;100.00
61786;BME280;47692;53.714;11.372;2024-01-16T02:50:07;99849.41;;;-4.18;100.00
61786;BME280;47692;53.714;11.372;2024-01-16T02:52:35;99846.06;;;-4.15;100.00
61786;BME280;47692;53.714;11.372;2024-01-16T02:55:00;99843.44;;;-4.18;100.00
61786;BME280;47692;53.714;11.372;2024-01-16T02:57:26;99851.94;;;-4.18;100.00
61786;BME280;47692;53.714;11.372;2024-01-16T02:59:51;99842.53;;;-4.20;100.00
61786;BME280;47692;53.714;11.372;2024-01-16T03:02:16;99857.78;;;-4.24;100.00
61786;BME280;47692;53.714;11.372;2024-01-16T03:07:57;99864.69;;;-4.18;100.00
61786;BME280;47692;53.714;11.372;2024-01-16T03:10:22;99878.22;;;-4.20;100.00
61786;BME280;47692;53.714;11.372;2024-01-16T03:12:48;99886.69;;;-4.22;100.00
61786;BME280;47692;53.714;11.372;2024-01-16T03:15:13;99876.66;;;-4.15;100.00
61786;BME280;47692;53.714;11.372;2024-01-16T03:17:38;99866.31;;;-4.22;100.00
61786;BME280;47692;53.714;11.372;2024-01-16T03:20:04;99861.22;;;-4.22;100.00
61786;BME280;47692;53.714;11.372;2024-01-16T03:22:29;99865.34;;;-4.27;100.00
61786;BME280;47692;53.714;11.372;2024-01-16T03:24:55;99875.44;;;-4.31;100.00
61786;BME280;47692;53.714;11.372;2024-01-16T03:27:20;99878.09;;;-4.27;100.00
61786;BME280;47692;53.714;11.372;2024-01-16T03:29:45;99879.06;;;-4.22;100.00
61786;BME280;47692;53.714;11.372;2024-01-16T03:32:11;99870.63;;;-4.19;100.00
61786;BME280;47692;53.714;11.372;2024-01-16T03:34:36;99870.75;;;-4.13;100.00
61786;BME280;47692;53.714;11.372;2024-01-16T03:37:01;99875.78;;;-4.17;100.00
61786;BME280;47692;53.714;11.372;2024-01-16T03:39:27;99888.44;;;-4.20;100.00
61786;BME280;47692;53.714;11.372;2024-01-16T03:41:52;99881.75;;;-4.15;100.00
61786;BME280;47692;53.714;11.372;2024-01-16T03:44:18;99896.19;;;-4.16;100.00
61786;BME280;47692;53.714;11.372;2024-01-16T03:46:43;99899.53;;;-4.18;100.00
61786;BME280;47692;53.714;11.372;2024-01-16T03:49:08;99903.13;;;-4.10;100.00
61786;BME280;47692;53.714;11.372;2024-01-16T03:51:33;99909.06;;;-4.11;100.00
61786;BME280;47692;53.714;11.372;2024-01-16T03:53:59;99914.22;;;-4.08;100.00
61786;BME280;47692;53.714;11.372;2024-01-16T03:56:24;99912.56;;;-4.06;100.00
61786;BME280;47692;53.714;11.372;2024-01-16T03:58:49;99910.94;;;-4.04;100.00
61786;BME280;47692;53.714;11.372;2024-01-16T04:01:15;99908.38;;;-4.04;100.00
61786;BME280;47692;53.714;11.372;2024-01-16T04:03:40;99905.84;;;-4.04;100.00
61786;BME280;47692;53.714;11.372;2024-01-16T04:06:18;99911.78;;;-4.03;100.00
61786;BME280;47692;53.714;11.372;2024-01-16T04:08:44;99909.13;;;-4.08;100.00
61786;BME280;47692;53.714;11.372;2024-01-16T04:11:13;99905.69;;;-4.10;100.00
61786;BME280;47692;53.714;11.372;2024-01-16T04:13:38;99894.59;;;-4.11;100.00
61786;BME280;47692;53.714;11.372;2024-01-16T04:16:04;99908.19;;;-4.12;100.00
61786;BME280;47692;53.714;11.372;2024-01-16T04:18:35;99907.31;;;-4.14;100.00
61786;BME280;47692;53.714;11.372;2024-01-16T04:21:00;99896.16;;;-4.17;100.00
61786;BME280;47692;53.714;11.372;2024-01-16T04:23:25;99896.91;;;-4.22;100.00
61786;BME280;47692;53.714;11.372;2024-01-16T04:25:51;99907.88;;;-4.24;100.00
61786;BME280;47692;53.714;11.372;2024-01-16T04:28:16;99913.88;;;-4.24;100.00
61786;BME280;47692;53.714;11.372;2024-01-16T04:30:41;99912.19;;;-4.22;100.00
61786;BME280;47692;53.714;11.372;2024-01-16T04:33:07;99919.03;;;-4.20;100.00
61786;BME280;47692;53.714;11.372;2024-01-16T04:35:32;99927.63;;;-4.15;100.00
61786;BME280;47692;53.714;11.372;2024-01-16T04:37:57;99918.97;;;-4.24;100.00
61786;BME280;47692;53.714;11.372;2024-01-16T04:40:22;99927.50;;;-4.22;100.00
61786;BME280;47692;53.714;11.372;2024-01-16T04:42:48;99927.50;;;-4.22;100.00
61786;BME280;47692;53.714;11.372;2024-01-16T04:45:13;99928.19;;;-4.29;100.00
61786;BME280;47692;53.714;11.372;2024-01-16T04:47:39;99931.75;;;-4.22;100.00
61786;BME280;47692;53.714;11.372;2024-01-16T04:50:04;99928.28;;;-4.24;100.00
61786;BME280;47692;53.714;11.372;2024-01-16T04:52:29;99919.69;;;-4.28;100.00
61786;BME280;47692;53.714;11.372;2024-01-16T04:54:55;99923.97;;;-4.27;100.00
61786;BME280;47692;53.714;11.372;2024-01-16T04:57:20;99913.03;;;-4.23;100.00
61786;BME280;47692;53.714;11.372;2024-01-16T04:59:45;99908.63;;;-4.30;100.00
61786;BME280;47692;53.714;11.372;2024-01-16T05:02:11;99915.31;;;-4.33;100.00
61786;BME280;47692;53.714;11.372;2024-01-16T05:04:37;99916.13;;;-4.34;100.00
61786;BME280;47692;53.714;11.372;2024-01-16T05:07:03;99912.78;;;-4.33;100.00
61786;BME280;47692;53.714;11.372;2024-01-16T05:09:29;99904.16;;;-4.39;100.00
61786;BME280;47692;53.714;11.372;2024-01-16T05:11:55;99907.50;;;-4.41;100.00
61786;BME280;47692;53.714;11.372;2024-01-16T05:14:20;99901.47;;;-4.43;100.00
61786;BME280;47692;53.714;11.372;2024-01-16T05:16:50;99899.88;;;-4.40;100.00
61786;BME280;47692;53.714;11.372;2024-01-16T05:19:15;99897.22;;;-4.43;100.00
61786;BME280;47692;53.714;11.372;2024-01-16T05:21:40;99897.16;;;-4.47;100.00
61786;BME280;47692;53.714;11.372;2024-01-16T05:24:07;99899.38;;;-4.60;100.00
61786;BME280;47692;53.714;11.372;2024-01-16T05:26:33;99905.28;;;-4.61;100.00
61786;BME280;47692;53.714;11.372;2024-01-16T05:28:58;99905.19;;;-4.64;100.00
61786;BME280;47692;53.714;11.372;2024-01-16T05:31:24;99912.00;;;-4.64;100.00
61786;BME280;47692;53.714;11.372;2024-01-16T05:33:49;99907.59;;;-4.70;100.00
61786;BME280;47692;53.714;11.372;2024-01-16T05:36:14;99909.16;;;-4.75;100.00
61786;BME280;47692;53.714;11.372;2024-01-16T05:38:40;99903.97;;;-4.80;100.00
61786;BME280;47692;53.714;11.372;2024-01-16T05:41:06;99903.09;;;-4.80;100.00
61786;BME280;47692;53.714;11.372;2024-01-16T05:43:31;99905.63;;;-4.80;100.00
61786;BME280;47692;53.714;11.372;2024-01-16T05:45:56;99904.78;;;-4.81;100.00
61786;BME280;47692;53.714;11.372;2024-01-16T05:48:22;99905.63;;;-4.80;100.00
61786;BME280;47692;53.714;11.372;2024-01-16T05:50:47;99912.28;;;-4.85;100.00
61786;BME280;47692;53.714;11.372;2024-01-16T05:53:13;99915.75;;;-4.83;100.00
61786;BME280;47692;53.714;11.372;2024-01-16T05:55:38;99922.63;;;-4.79;100.00
61786;BME280;47692;53.714;11.372;2024-01-16T05:58:03;99919.03;;;-4.88;100.00
61786;BME280;47692;53.714;11.372;2024-01-16T06:00:29;99919.03;;;-4.88;100.00
61786;BME280;47692;53.714;11.372;2024-01-16T06:02:54;99920.00;;;-4.82;100.00
61786;BME280;47692;53.714;11.372;2024-01-16T06:05:20;99926.94;;;-4.77;100.00
61786;BME280;47692;53.714;11.372;2024-01-16T06:07:45;99919.34;;;-4.75;100.00
61786;BME280;47692;53.714;11.372;2024-01-16T06:10:14;99916.00;;;-4.73;100.00
61786;BME280;47692;53.714;11.372;2024-01-16T06:12:40;99922.94;;;-4.68;100.00
61786;BME280;47692;53.714;11.372;2024-01-16T06:18:11;99924.69;;;-4.66;100.00
61786;BME280;47692;53.714;11.372;2024-01-16T06:20:37;99914.41;;;-4.69;100.00
61786;BME280;47692;53.714;11.372;2024-01-16T06:23:02;99917.94;;;-4.64;100.00
61786;BME280;47692;53.714;11.372;2024-01-16T06:25:28;99914.56;;;-4.63;100.00
61786;BME280;47692;53.714;11.372;2024-01-16T06:27:53;99920.56;;;-4.62;100.00
61786;BME280;47692;53.714;11.372;2024-01-16T06:30:18;99917.88;;;-4.67;100.00
61786;BME280;47692;53.714;11.372;2024-01-16T06:32:44;99916.91;;;-4.72;100.00
61786;BME280;47692;53.714;11.372;2024-01-16T06:35:11;99919.50;;;-4.69;100.00
61786;BME280;47692;53.714;11.372;2024-01-16T06:37:37;99918.78;;;-4.65;100.00
61786;BME280;47692;53.714;11.372;2024-01-16T06:40:03;99921.34;;;-4.65;100.00
61786;BME280;47692;53.714;11.372;2024-01-16T06:42:29;99917.09;;;-4.64;100.00
61786;BME280;47692;53.714;11.372;2024-01-16T06:44:54;99916.47;;;-4.56;100.00
61786;BME280;47692;53.714;11.372;2024-01-16T06:47:19;99921.88;;;-4.43;100.00
61786;BME280;47692;53.714;11.372;2024-01-16T06:49:45;99918.50;;;-4.42;100.00
61786;BME280;47692;53.714;11.372;2024-01-16T06:52:10;99926.88;;;-4.46;100.00
61786;BME280;47692;53.714;11.372;2024-01-16T06:54:35;99929.56;;;-4.40;100.00
61786;BME280;47692;53.714;11.372;2024-01-16T06:57:01;99933.22;;;-4.30;100.00
61786;BME280;47692;53.714;11.372;2024-01-16T06:59:26;99947.66;;;-4.31;100.00
61786;BME280;47692;53.714;11.372;2024-01-16T07:01:51;99953.63;;;-4.30;100.00
61786;BME280;47692;53.714;11.372;2024-01-16T07:04:17;99968.22;;;-4.25;100.00
61786;BME280;47692;53.714;11.372;2024-01-16T07:06:42;99965.78;;;-4.20;100.00
61786;BME280;47692;53.714;11.372;2024-01-16T07:09:09;99963.19;;;-4.22;100.00
61786;BME280;47692;53.714;11.372;2024-01-16T07:11:36;99962.47;;;-4.16;100.00
61786;BME280;47692;53.714;11.372;2024-01-16T07:14:02;99966.56;;;-4.23;100.00
61786;BME280;47692;53.714;11.372;2024-01-16T07:16:28;99963.13;;;-4.25;100.00
61786;BME280;47692;53.714;11.372;2024-01-16T07:18:54;99959.75;;;-4.24;100.00
61786;BME280;47692;53.714;11.372;2024-01-16T07:21:21;99964.06;;;-4.21;100.00
61786;BME280;47692;53.714;11.372;2024-01-16T07:23:47;99966.63;;;-4.19;100.00
61786;BME280;47692;53.714;11.372;2024-01-16T07:26:12;99961.47;;;-4.23;100.00
61786;BME280;47692;53.714;11.372;2024-01-16T07:28:37;99960.63;;;-4.22;100.00
61786;BME280;47692;53.714;11.372;2024-01-16T07:31:03;99959.91;;;-4.17;100.00
61786;BME280;47692;53.714;11.372;2024-01-16T07:33:28;99965.22;;;-4.08;100.00
61786;BME280;47692;53.714;11.372;2024-01-16T07:35:54;99965.38;;;-4.02;100.00
61786;BME280;47692;53.714;11.372;2024-01-16T07:38:20;99970.47;;;-4.02;100.00
61786;BME280;47692;53.714;11.372;2024-01-16T07:40:45;99969.69;;;-3.99;100.00
61786;BME280;47692;53.714;11.372;2024-01-16T07:43:11;99977.50;;;-3.92;100.00
61786;BME280;47692;53.714;11.372;2024-01-16T07:45:37;99985.38;;;-3.84;100.00
61786;BME280;47692;53.714;11.372;2024-01-16T07:48:02;99984.56;;;-3.81;100.00
61786;BME280;47692;53.714;11.372;2024-01-16T07:50:28;99983.00;;;-3.76;100.00
61786;BME280;47692;53.714;11.372;2024-01-16T07:52:53;99978.09;;;-3.67;100.00
61786;BME280;47692;53.714;11.372;2024-01-16T07:55:19;99983.28;;;-3.64;100.00
61786;BME280;47692;53.714;11.372;2024-01-16T07:57:44;99978.22;;;-3.61;100.00
61786;BME280;47692;53.714;11.372;2024-01-16T08:00:10;99985.06;;;-3.60;100.00
61786;BME280;47692;53.714;11.372;2024-01-16T08:02:39;99991.97;;;-3.55;100.00
61786;BME280;47692;53.714;11.372;2024-01-16T08:05:05;99991.13;;;-3.54;100.00
61786;BME280;47692;53.714;11.372;2024-01-16T08:07:30;99994.53;;;-3.55;100.00
61786;BME280;47692;53.714;11.372;2024-01-16T08:09:55;99998.88;;;-3.51;100.00
61786;BME280;47692;53.714;11.372;2024-01-16T08:12:21;100000.66;;;-3.47;100.00
61786;BME280;47692;53.714;11.372;2024-01-16T08:14:46;99999.00;;;-3.45;100.00
61786;BME280;47692;53.714;11.372;2024-01-16T08:17:12;100000.88;;;-3.38;100.00
61786;BME280;47692;53.714;11.372;2024-01-16T08:19:37;99999.16;;;-3.39;100.00
61786;BME280;47692;53.714;11.372;2024-01-16T08:22:03;100005.31;;;-3.29;100.00
61786;BME280;47692;53.714;11.372;2024-01-16T08:24:29;100000.28;;;-3.25;100.00
61786;BME280;47692;53.714;11.372;2024-01-16T08:26:54;100006.44;;;-3.16;100.00
61786;BME280;47692;53.714;11.372;2024-01-16T08:29:22;99998.88;;;-3.12;100.00
61786;BME280;47692;53.714;11.372;2024-01-16T08:31:48;100002.38;;;-3.08;100.00
61786;BME280;47692;53.714;11.372;2024-01-16T08:34:13;100003.22;;;-3.08;100.00
61786;BME280;47692;53.714;11.372;2024-01-16T08:36:38;99993.03;;;-3.06;100.00
61786;BME280;47692;53.714;11.372;2024-01-16T08:39:05;99998.19;;;-3.04;100.00
61786;BME280;47692;53.714;11.372;2024-01-16T08:41:31;99991.38;;;-3.04;100.00
61786;BME280;47692;53.714;11.372;2024-01-16T08:43:56;99995.66;;;-3.03;100.00
61786;BME280;47692;53.714;11.372;2024-01-16T08:46:21;99988.00;;;-3.03;100.00
61786;BME280;47692;53.714;11.372;2024-01-16T08:48:48;99984.63;;;-3.02;100.00
61786;BME280;47692;53.714;11.372;2024-01-16T08:51:14;99994.84;;;-3.02;100.00
61786;BME280;47692;53.714;11.372;2024-01-16T08:53:40;99988.91;;;-3.01;100.00
61786;BME280;47692;53.714;11.372;2024-01-16T08:56:05;99983.88;;;-2.96;100.00
61786;BME280;47692;53.714;11.372;2024-01-16T08:58:34;99984.75;;;-2.96;100.00
61786;BME280;47692;53.714;11.372;2024-01-16T09:01:06;99986.53;;;-2.92;100.00
61786;BME280;47692;53.714;11.372;2024-01-16T09:03:35;99986.56;;;-2.88;100.00
61786;BME280;47692;53.714;11.372;2024-01-16T09:06:01;99985.75;;;-2.87;100.00
61786;BME280;47692;53.714;11.372;2024-01-16T09:08:26;99990.91;;;-2.86;100.00
61786;BME280;47692;53.714;11.372;2024-01-16T09:10:53;99988.41;;;-2.83;100.00
61786;BME280;47692;53.714;11.372;2024-01-16T09:13:18;99993.53;;;-2.81;100.00
61786;BME280;47692;53.714;11.372;2024-01-16T09:15:45;99996.13;;;-2.80;100.00
61786;BME280;47692;53.714;11.372;2024-01-16T09:18:12;99978.16;;;-2.84;100.00
61786;BME280;47692;53.714;11.372;2024-01-16T09:20:37;99990.16;;;-2.80;100.00
61786;BME280;47692;53.714;11.372;2024-01-16T09:23:03;99979.94;;;-2.80;100.00
61786;BME280;47692;53.714;11.372;2024-01-16T09:25:28;99980.84;;;-2.77;100.00
61786;BME280;47692;53.714;11.372;2024-01-16T09:27:55;99978.28;;;-2.78;100.00
61786;BME280;47692;53.714;11.372;2024-01-16T09:30:20;99980.13;;;-2.71;100.00
61786;BME280;47692;53.714;11.372;2024-01-16T09:32:48;99980.25;;;-2.65;100.00
61786;BME280;47692;53.714;11.372;2024-01-16T09:35:14;99981.13;;;-2.61;100.00
61786;BME280;47692;53.714;11.372;2024-01-16T09:37:39;99983.66;;;-2.63;100.00
61786;BME280;47692;53.714;11.372;2024-01-16T09:40:06;99969.94;;;-2.68;100.00
61786;BME280;47692;53.714;11.372;2024-01-16T09:42:31;99976.84;;;-2.64;100.00
61786;BME280;47692;53.714;11.372;2024-01-16T09:44:57;99975.19;;;-2.62;100.00
61786;BME280;47692;53.714;11.372;2024-01-16T09:47:24;99976.91;;;-2.61;100.00
61786;BME280;47692;53.714;11.372;2024-01-16T09:49:50;99980.31;;;-2.60;100.00
61786;BME280;47692;53.714;11.372;2024-01-16T09:52:15;99978.56;;;-2.63;100.00
61786;BME280;47692;53.714;11.372;2024-01-16T09:54:41;99986.31;;;-2.58;100.00
61786;BME280;47692;53.714;11.372;2024-01-16T09:57:07;99982.03;;;-2.61;100.00
61786;BME280;47692;53.714;11.372;2024-01-16T09:59:32;99977.03;;;-2.54;100.00
61786;BME280;47692;53.714;11.372;2024-01-16T10:02:01;99977.13;;;-2.48;100.00
61786;BME280;47692;53.714;11.372;2024-01-16T10:04:30;99990.97;;;-2.37;100.00
61786;BME280;47692;53.714;11.372;2024-01-16T10:06:57;99987.69;;;-2.30;100.00
61786;BME280;47692;53.714;11.372;2024-01-16T10:09:23;99983.50;;;-2.26;100.00
61786;BME280;47692;53.714;11.372;2024-01-16T10:11:50;99992.97;;;-2.20;100.00
61786;BME280;47692;53.714;11.372;2024-01-16T10:14:17;99989.56;;;-2.19;100.00
61786;BME280;47692;53.714;11.372;2024-01-16T10:16:59;99981.19;;;-2.12;100.00
61786;BME280;47692;53.714;11.372;2024-01-16T10:19:30;99993.28;;;-2.02;100.00
61786;BME280;47692;53.714;11.372;2024-01-16T10:22:05;99998.41;;;-2.02;100.00
61786;BME280;47692;53.714;11.372;2024-01-16T10:24:34;99997.59;;;-1.99;100.00
61786;BME280;47692;53.714;11.372;2024-01-16T10:27:01;100006.28;;;-1.89;100.00
61786;BME280;47692;53.714;11.372;2024-01-16T10:29:29;100007.19;;;-1.87;100.00
61786;BME280;47692;53.714;11.372;2024-01-16T10:32:00;100000.44;;;-1.82;100.00
61786;BME280;47692;53.714;11.372;2024-01-16T10:34:25;100002.19;;;-1.78;100.00
61786;BME280;47692;53.714;11.372;2024-01-16T10:36:58;100007.41;;;-1.72;100.00
61786;BME280;47692;53.714;11.372;2024-01-16T10:39:24;100005.84;;;-1.64;100.00
61786;BME280;47692;53.714;11.372;2024-01-16T10:41:56;100005.13;;;-1.55;100.00
61786;BME280;47692;53.714;11.372;2024-01-16T10:44:22;100012.81;;;-1.53;100.00
61786;BME280;47692;53.714;11.372;2024-01-16T10:46:48;100006.03;;;-1.51;100.00
61786;BME280;47692;53.714;11.372;2024-01-16T10:49:13;99998.41;;;-1.47;100.00
61786;BME280;47692;53.714;11.372;2024-01-16T10:51:43;99998.34;;;-1.53;100.00
61786;BME280;47692;53.714;11.372;2024-01-16T10:54:10;100000.13;;;-1.46;100.00
61786;BME280;47692;53.714;11.372;2024-01-16T10:56:37;99984.75;;;-1.46;100.00
61786;BME280;47692;53.714;11.372;2024-01-16T10:59:16;99998.59;;;-1.34;100.00
61786;BME280;47692;53.714;11.372;2024-01-16T11:01:46;99996.88;;;-1.35;100.00
61786;BME280;47692;53.714;11.372;2024-01-16T11:04:14;99997.69;;;-1.38;100.00
61786;BME280;47692;53.714;11.372;2024-01-16T11:06:40;100001.19;;;-1.33;100.00
61786;BME280;47692;53.714;11.372;2024-01-16T11:09:08;99994.31;;;-1.34;100.00
61786;BME280;47692;53.714;11.372;2024-01-16T11:11:33;99996.06;;;-1.33;100.00
61786;BME280;47692;53.714;11.372;2024-01-16T11:14:02;99992.66;;;-1.32;100.00
61786;BME280;47692;53.714;11.372;2024-01-16T11:16:29;99984.16;;;-1.29;100.00
61786;BME280;47692;53.714;11.372;2024-01-16T11:18:56;99986.66;;;-1.31;100.00
61786;BME280;47692;53.714;11.372;2024-01-16T11:21:22;99997.78;;;-1.32;100.00
61786;BME280;47692;53.714;11.372;2024-01-16T11:23:47;99994.34;;;-1.31;100.00
61786;BME280;47692;53.714;11.372;2024-01-16T11:26:32;100001.38;;;-1.17;100.00
61786;BME280;47692;53.714;11.372;2024-01-16T11:28:59;99999.66;;;-1.18;100.00
61786;BME280;47692;53.714;11.372;2024-01-16T11:31:32;99998.84;;;-1.16;100.00
61786;BME280;47692;53.714;11.372;2024-01-16T11:33:59;100013.56;;;-1.01;100.00
61786;BME280;47692;53.714;11.372;2024-01-16T11:36:53;100001.63;;;-0.99;100.00
61786;BME280;47692;53.714;11.372;2024-01-16T11:39:25;99998.22;;;-0.96;100.00
61786;BME280;47692;53.714;11.372;2024-01-16T11:41:55;100004.25;;;-0.92;100.00
61786;BME280;47692;53.714;11.372;2024-01-16T11:47:08;100009.47;;;-0.85;100.00
61786;BME280;47692;53.714;11.372;2024-01-16T11:49:37;100006.13;;;-0.82;100.00
61786;BME280;47692;53.714;11.372;2024-01-16T11:52:03;100008.59;;;-0.88;100.00
61786;BME280;47692;53.714;11.372;2024-01-16T11:54:29;100010.34;;;-0.84;100.00
61786;BME280;47692;53.714;11.372;2024-01-16T11:57:19;100012.81;;;-0.92;100.00
61786;BME280;47692;53.714;11.372;2024-01-16T12:00:04;100007.56;;;-1.00;100.00
61786;BME280;47692;53.714;11.372;2024-01-16T12:02:53;100005.06;;;-0.96;100.00
61786;BME280;47692;53.714;11.372;2024-01-16T12:05:20;100005.06;;;-0.96;100.00
61786;BME280;47692;53.714;11.372;2024-01-16T12:07:53;99991.34;;;-1.00;100.00
61786;BME280;47692;53.714;11.372;2024-01-16T12:10:23;99996.47;;;-1.02;100.00
61786;BME280;47692;53.714;11.372;2024-01-16T12:12:50;100001.63;;;-0.99;100.00
61786;BME280;47692;53.714;11.372;2024-01-16T12:15:20;99995.66;;;-0.99;100.00
61786;BME280;47692;53.714;11.372;2024-01-16T12:17:56;100006.81;;;-0.95;100.00
61786;BME280;47692;53.714;11.372;2024-01-16T12:20:23;100000.84;;;-0.94;100.00
61786;BME280;47692;53.714;11.372;2024-01-16T12:22:58;100005.91;;;-0.98;100.00
61786;BME280;47692;53.714;11.372;2024-01-16T12:25:28;100003.34;;;-0.98;100.00
61786;BME280;47692;53.714;11.372;2024-01-16T12:28:03;100015.34;;;-0.93;100.00
61786;BME280;47692;53.714;11.372;2024-01-16T12:30:31;100018.00;;;-0.87;100.00
61786;BME280;47692;53.714;11.372;2024-01-16T12:33:06;100012.03;;;-0.86;100.00
61786;BME280;47692;53.714;11.372;2024-01-16T12:35:41;100015.56;;;-0.78;100.00
61786;BME280;47692;53.714;11.372;2024-01-16T12:38:10;100015.59;;;-0.75;100.00
61786;BME280;47692;53.714;11.372;2024-01-16T12:40:55;100007.06;;;-0.74;100.00
61786;BME280;47692;53.714;11.372;2024-01-16T12:43:21;100009.63;;;-0.74;100.00
61786;BME280;47692;53.714;11.372;2024-01-16T12:45:54;100003.66;;;-0.73;100.00
61786;BME280;47692;53.714;11.372;2024-01-16T12:48:26;100000.28;;;-0.69;100.00